Time;durP1;ratioP1;P1;durP2;ratioP2;P2;SDS_P1;SDS_P2;PMS_P1;PMS_P2;Temp;Humidity;BMP_temperature;BMP_pressure;BME280_temperature;BME280_humidity;BME280_pressure;Samples;Min_cycle;Max_cycle;Signal;HPM_P1;HPM_P2
2022/11/09 00:01:14;;;;;;;20.82;16.20;;;;;;;11.51;95.08;99997.20;2873803;79;21378;-85
2022/11/09 00:05:15;;;;;;;27.17;17.40;;;;;;;11.50;94.86;100006.17;2902775;80;21671;-85
2022/11/09 00:18:35;;;;;;;23.60;14.55;;;;;;;11.37;95.64;99993.13;2935059;79;21067;-59
2022/11/09 00:22:37;;;;;;;22.60;16.12;;;;;;;11.35;96.16;99989.77;2987039;78;20988;-59
2022/11/09 00:26:38;;;;;;;26.40;18.25;;;;;;;11.44;96.12;99988.09;2986826;79;20977;-57
2022/11/09 00:30:42;;;;;;;22.35;17.48;;;;;;;11.48;96.23;99984.17;2965825;79;21027;-57
2022/11/09 00:34:43;;;;;;;21.05;16.90;;;;;;;11.50;96.57;99994.19;2976601;78;21011;-58
2022/11/09 00:38:49;;;;;;;27.25;16.37;;;;;;;11.57;96.41;99988.64;2929149;80;21009;-58
2022/11/09 00:42:51;;;;;;;22.50;15.13;;;;;;;11.60;96.27;99990.20;2931173;79;21011;-59
2022/11/09 00:46:52;;;;;;;23.25;15.40;;;;;;;11.62;96.02;99990.08;2931641;80;21026;-58
2022/11/09 00:50:55;;;;;;;22.87;18.23;;;;;;;11.73;96.10;99991.75;2931327;79;21063;-60
2022/11/09 00:54:56;;;;;;;24.05;16.07;;;;;;;11.77;95.37;99993.97;2950746;79;21496;-58
2022/11/09 00:58:57;;;;;;;27.35;18.17;;;;;;;11.77;95.20;99995.81;2972816;78;21073;-58
2022/11/09 01:02:59;;;;;;;30.17;17.75;;;;;;;11.80;95.71;99993.72;2913165;79;20996;-57
2022/11/09 01:07:08;;;;;;;24.90;18.82;;;;;;;11.86;95.05;99989.14;2952497;79;20955;-56
2022/11/09 01:11:11;;;;;;;28.30;19.70;;;;;;;11.96;95.09;99986.95;2962504;79;20964;-58
2022/11/09 01:15:12;;;;;;;25.90;17.20;;;;;;;12.02;94.72;99989.09;2878023;80;20991;-60
2022/11/09 01:19:13;;;;;;;25.08;17.85;;;;;;;12.07;94.76;99993.50;2931832;80;21007;-57
2022/11/09 01:23:29;;;;;;;25.40;18.02;;;;;;;12.14;94.66;99985.27;2931213;80;20987;-56
2022/11/09 01:27:31;;;;;;;23.92;17.65;;;;;;;12.16;94.74;99988.28;2920899;79;21051;-59
2022/11/09 01:31:32;;;;;;;27.95;19.77;;;;;;;12.13;94.79;99982.25;2864114;82;21052;-59
2022/11/09 01:35:39;;;;;;;23.95;19.67;;;;;;;12.14;95.34;99977.27;2884547;81;21007;-58
2022/11/09 01:39:40;;;;;;;24.47;19.10;;;;;;;12.11;95.81;99970.89;2975032;78;20951;-58
2022/11/09 01:43:42;;;;;;;26.05;19.10;;;;;;;12.14;96.06;99974.60;2975482;79;21039;-57
2022/11/09 01:47:52;;;;;;;26.80;18.95;;;;;;;12.13;95.88;99960.92;2969470;79;21023;-58
2022/11/09 01:52:02;;;;;;;29.52;19.23;;;;;;;12.16;95.89;99962.95;2899656;80;20992;-58
2022/11/09 01:56:16;;;;;;;28.57;21.23;;;;;;;12.24;95.56;99964.42;2948778;79;21000;-57
2022/11/09 02:00:18;;;;;;;30.90;19.40;;;;;;;12.26;95.46;99970.45;2910049;79;21070;-58
2022/11/09 02:04:25;;;;;;;28.80;19.85;;;;;;;12.23;95.63;99966.74;2959053;79;21003;-58
2022/11/09 02:08:26;;;;;;;31.68;20.08;;;;;;;12.18;95.85;99963.17;2983121;78;20948;-57
2022/11/09 02:12:31;;;;;;;26.45;18.45;;;;;;;12.26;95.69;99965.94;2937299;79;20991;-62
2022/11/09 02:16:33;;;;;;;27.50;19.02;;;;;;;12.24;95.72;99967.91;2970803;79;20949;-57
2022/11/09 02:20:50;;;;;;;32.75;22.35;;;;;;;12.22;95.79;99960.55;2931052;78;20991;-60
2022/11/09 02:24:52;;;;;;;27.10;19.77;;;;;;;12.25;95.83;99960.26;2894963;80;21132;-58
2022/11/09 02:28:56;;;;;;;34.88;20.10;;;;;;;12.28;95.96;99969.33;2906678;79;21023;-59
2022/11/09 02:32:58;;;;;;;26.60;20.12;;;;;;;12.25;95.98;99967.44;2914606;80;21034;-61
2022/11/09 02:36:59;;;;;;;32.88;19.48;;;;;;;12.30;95.98;99962.50;2899678;80;21012;-59
2022/11/09 02:41:01;;;;;;;28.98;21.27;;;;;;;12.26;96.06;99955.78;2839570;82;21004;-58
2022/11/09 02:45:25;;;;;;;29.57;20.57;;;;;;;12.34;95.76;99955.88;2884438;80;21454;-60
2022/11/09 02:49:26;;;;;;;30.10;19.98;;;;;;;12.33;95.42;99956.88;2883764;80;20964;-63
2022/11/09 02:53:27;;;;;;;29.65;19.85;;;;;;;12.30;95.13;99956.34;2860854;81;21058;-59
2022/11/09 02:57:29;;;;;;;25.20;17.92;;;;;;;12.32;94.71;99965.03;2915868;80;20995;-57
2022/11/09 03:01:30;;;;;;;25.55;18.42;;;;;;;12.20;94.85;99959.86;2937272;79;21007;-60
2022/11/09 03:05:32;;;;;;;28.60;19.12;;;;;;;12.24;94.98;99971.09;2954022;79;20987;-57
2022/11/09 03:09:35;;;;;;;27.37;19.17;;;;;;;12.22;95.10;99985.06;2958862;79;20960;-57
2022/11/09 03:13:36;;;;;;;30.88;20.17;;;;;;;12.19;95.24;99990.18;2915074;79;21099;-58
2022/11/09 03:17:38;;;;;;;29.25;20.70;;;;;;;12.12;95.70;99987.23;2929004;78;20951;-57
2022/11/09 03:21:39;;;;;;;31.73;20.72;;;;;;;12.01;96.48;99982.09;2963600;79;20991;-59
2022/11/09 03:25:41;;;;;;;32.23;21.17;;;;;;;11.98;97.00;99980.98;2965533;78;20979;-58
2022/11/09 03:29:43;;;;;;;32.83;23.85;;;;;;;12.02;96.87;99981.09;2956684;79;21003;-57
2022/11/09 03:33:44;;;;;;;33.23;22.87;;;;;;;12.00;97.37;99983.04;2936706;79;21797;-57
2022/11/09 03:37:46;;;;;;;32.23;21.07;;;;;;;11.94;98.02;99979.59;2921669;79;21089;-57
2022/11/09 03:41:48;;;;;;;31.17;22.50;;;;;;;11.97;97.81;99972.63;2944534;79;21031;-57
2022/11/09 03:45:50;;;;;;;26.82;20.25;;;;;;;11.93;98.13;99976.09;2807622;82;21063;-59
2022/11/09 03:50:06;;;;;;;30.77;21.00;;;;;;;11.94;98.21;99975.59;2815073;83;21011;-59
2022/11/09 03:54:07;;;;;;;;;;;;;;;11.97;97.79;99972.63;2934013;78;21032;-58
2022/11/09 03:58:11;;;;;;;35.45;24.05;;;;;;;11.88;97.95;99966.84;2899914;78;20117;-57
2022/11/09 04:02:13;;;;;;;28.70;22.90;;;;;;;11.89;98.19;99961.86;2944941;78;21007;-57
2022/11/09 04:06:18;;;;;;;29.20;20.57;;;;;;;11.89;97.84;99963.19;2974244;79;20951;-59
2022/11/09 04:10:21;;;;;;;28.98;20.45;;;;;;;11.88;97.64;99954.84;2967378;79;20980;-58
2022/11/09 04:14:23;;;;;;;34.10;22.35;;;;;;;11.86;97.53;99955.83;2904580;80;20970;-58
2022/11/09 04:18:24;;;;;;;28.77;20.68;;;;;;;11.85;97.28;99954.16;2945649;79;20984;-57
2022/11/09 04:22:25;;;;;;;30.10;19.67;;;;;;;11.81;97.40;99948.77;2970067;79;21001;-57
2022/11/09 04:26:27;;;;;;;27.70;20.05;;;;;;;11.83;97.24;99949.94;2945195;78;21022;-57
2022/11/09 04:30:30;;;;;;;31.50;22.48;;;;;;;11.85;96.93;99950.63;2953833;78;21089;-58
2022/11/09 04:34:31;;;;;;;28.80;19.62;;;;;;;11.86;96.69;99950.50;2961648;79;20961;-58
2022/11/09 04:38:32;;;;;;;29.60;21.55;;;;;;;11.88;96.57;99949.01;2965883;79;21050;-57
2022/11/09 04:42:34;;;;;;;28.47;20.48;;;;;;;11.83;96.94;99948.13;2961639;79;20999;-58
2022/11/09 04:46:35;;;;;;;31.52;19.82;;;;;;;11.82;96.79;99940.26;2954759;78;21580;-58
2022/11/09 04:50:36;;;;;;;28.07;18.10;;;;;;;11.85;96.62;99927.50;2898326;79;21030;-58
2022/11/09 04:54:38;;;;;;;29.07;18.98;;;;;;;11.83;96.96;99932.61;2942518;79;21039;-58
2022/11/09 04:58:39;;;;;;;28.80;20.02;;;;;;;11.87;96.56;99927.34;2929195;79;20998;-58
2022/11/09 05:03:02;;;;;;;29.25;19.32;;;;;;;11.83;96.63;99919.29;2916021;78;20981;-57
2022/11/09 05:07:04;;;;;;;30.82;22.05;;;;;;;11.90;96.90;99919.56;2970504;78;21016;-58
2022/11/09 05:11:06;;;;;;;32.08;21.50;;;;;;;11.95;96.29;99919.48;2945869;79;21000;-56
2022/11/09 05:15:08;;;;;;;30.35;20.15;;;;;;;11.89;96.35;99917.88;2889768;79;21011;-58
2022/11/09 05:19:10;;;;;;;28.25;20.00;;;;;;;11.91;96.23;99917.24;2976124;79;20995;-57
2022/11/09 05:28:05;;;;;;;;;;;;;;;11.86;96.08;99915.86;2926864;79;21012;-56
2022/11/09 05:32:17;;;;;;;27.45;19.48;;;;;;;11.82;95.93;99919.80;2935611;78;20126;-57
2022/11/09 05:36:19;;;;;;;30.88;20.77;;;;;;;11.77;96.09;99930.02;2938947;79;21109;-58
2022/11/09 05:40:21;;;;;;;33.10;21.85;;;;;;;11.69;96.39;99929.42;2929625;80;21007;-58
2022/11/09 05:44:22;;;;;;;35.88;21.87;;;;;;;11.70;96.38;99931.58;2947630;80;21114;-57
2022/11/09 05:48:23;;;;;;;26.12;16.40;;;;;;;11.69;96.63;99924.09;2940507;79;21000;-59
2022/11/09 05:52:25;;;;;;;33.75;22.77;;;;;;;11.64;96.67;99926.83;2952569;79;20948;-59
2022/11/09 05:56:26;;;;;;;27.62;20.32;;;;;;;11.61;96.87;99915.95;2954972;80;21003;-59
2022/11/09 06:00:28;;;;;;;33.98;22.35;;;;;;;11.61;96.97;99927.94;2929371;79;21046;-58
2022/11/09 06:04:29;;;;;;;29.32;23.75;;;;;;;11.58;96.73;99933.56;2914465;80;21050;-58
2022/11/09 06:08:32;;;;;;;30.65;21.70;;;;;;;11.62;97.10;99935.46;2966268;77;20944;-58
2022/11/09 06:12:33;;;;;;;32.33;20.23;;;;;;;11.63;96.78;99930.48;2996647;78;21008;-58
2022/11/09 06:16:35;;;;;;;35.70;22.27;;;;;;;11.65;96.72;99935.17;2925461;80;20983;-58
2022/11/09 06:20:57;;;;;;;30.62;21.62;;;;;;;11.70;96.58;99922.26;2923008;80;20972;-58
2022/11/09 06:25:01;;;;;;;35.90;22.17;;;;;;;11.70;96.29;99931.58;2931858;79;21004;-59
2022/11/09 06:29:02;;;;;;;34.33;19.98;;;;;;;11.67;96.35;99936.69;2943707;79;20979;-58
2022/11/09 06:33:03;;;;;;;36.50;23.35;;;;;;;11.69;96.42;99936.09;2961640;79;21039;-59
2022/11/09 06:37:05;;;;;;;38.13;23.15;;;;;;;11.71;95.97;99923.94;2965788;78;20993;-60
2022/11/09 06:41:06;;;;;;;30.10;20.97;;;;;;;11.75;95.72;99924.00;3008431;78;20947;-58
2022/11/09 06:45:08;;;;;;;29.02;18.27;;;;;;;11.81;95.40;99919.45;2975685;79;21074;-59
2022/11/09 06:49:10;;;;;;;30.70;20.70;;;;;;;11.84;95.56;99927.63;2955839;79;21012;-57
2022/11/09 06:53:13;;;;;;;36.68;24.05;;;;;;;11.81;95.61;99936.77;2953607;79;20983;-58
2022/11/09 06:57:14;;;;;;;28.90;21.57;;;;;;;11.88;95.46;99940.19;2949081;79;20940;-58
2022/11/09 07:01:18;;;;;;;35.28;21.30;;;;;;;11.91;95.37;99955.89;2930737;78;20979;-58
2022/11/09 07:05:21;;;;;;;33.63;21.25;;;;;;;11.97;95.21;99932.66;2976896;78;20980;-57
2022/11/09 07:09:22;;;;;;;32.93;23.67;;;;;;;12.03;94.04;99942.80;2959254;79;20971;-58
2022/11/09 07:13:23;;;;;;;31.77;20.23;;;;;;;12.18;93.87;99939.65;2950103;78;21028;-57
2022/11/09 07:17:25;;;;;;;33.95;21.73;;;;;;;12.31;93.15;99934.84;2941143;79;21031;-58
2022/11/09 07:21:31;;;;;;;30.02;21.23;;;;;;;12.39;92.96;99946.12;2949967;79;20936;-58
2022/11/09 07:25:32;;;;;;;26.37;18.35;;;;;;;12.55;92.50;99938.34;2852635;82;21039;-58
2022/11/09 07:29:33;;;;;;;28.85;20.10;;;;;;;12.69;91.35;99949.01;2826592;81;21039;-58
2022/11/09 07:33:35;;;;;;;24.55;19.23;;;;;;;12.84;90.59;99952.02;2890608;80;21032;-58
2022/11/09 07:37:41;;;;;;;34.63;21.62;;;;;;;12.86;90.39;99949.20;2799620;83;21079;-58
2022/11/09 07:41:42;;;;;;;29.05;19.17;;;;;;;13.02;89.66;99937.04;2929727;79;21015;-59
2022/11/09 07:45:43;;;;;;;25.00;16.90;;;;;;;13.18;89.32;99935.88;2957582;78;21473;-58
2022/11/09 07:49:46;;;;;;;25.57;18.95;;;;;;;13.27;88.31;99937.63;2965535;77;73319;-94
2022/11/09 07:53:47;;;;;;;29.45;19.35;;;;;;;13.29;88.32;99942.31;2957109;77;21095;-90
2022/11/09 07:57:50;;;;;;;29.45;19.48;;;;;;;13.41;87.89;99936.77;2898256;78;21087;-94
2022/11/09 08:01:52;;;;;;;30.65;17.35;;;;;;;13.63;87.11;99941.32;2945391;77;21046;-96
2022/11/09 08:05:56;;;;;;;28.75;18.50;;;;;;;13.75;87.25;99929.38;2936020;78;21000;-96
2022/11/09 08:09:58;;;;;;;28.27;18.85;;;;;;;14.05;85.46;99931.75;2932659;78;22253;-95
2022/11/09 08:13:59;;;;;;;26.02;17.40;;;;;;;14.06;84.05;99929.45;2925035;78;21099;-95
2022/11/09 08:18:07;;;;;;;27.95;18.65;;;;;;;14.21;83.96;99920.33;2911613;79;21113;-94
2022/11/09 08:22:09;;;;;;;25.02;15.80;;;;;;;14.21;82.99;99921.67;2914800;79;21058;-93
2022/11/09 08:26:11;;;;;;;24.07;16.37;;;;;;;14.16;83.59;99923.98;2948594;77;21517;-95
2022/11/09 08:30:16;;;;;;;27.32;16.85;;;;;;;14.13;83.46;99925.95;2909873;78;21545;-93
2022/11/09 08:34:18;;;;;;;24.00;16.17;;;;;;;14.05;83.11;99936.61;2960097;77;21054;-95
2022/11/09 08:38:19;;;;;;;32.75;21.30;;;;;;;14.05;83.07;99939.29;2950282;78;21023;-94
2022/11/09 08:42:21;;;;;;;26.90;17.12;;;;;;;14.03;83.44;99937.27;2909515;79;20964;-93
2022/11/09 08:46:22;;;;;;;27.42;18.30;;;;;;;13.98;84.34;99935.58;2854627;79;21019;-95
2022/11/09 08:50:25;;;;;;;25.72;19.55;;;;;;;13.98;84.18;99930.23;2941477;78;21518;-93
2022/11/09 08:54:26;;;;;;;25.70;19.17;;;;;;;13.92;83.95;99929.02;2930350;78;21060;-94
2022/11/09 08:58:28;;;;;;;27.10;18.35;;;;;;;13.83;83.77;99933.94;2927623;79;20987;-93
2022/11/09 09:02:30;;;;;;;32.83;18.62;;;;;;;13.78;84.08;99949.13;2897447;78;21007;-94
2022/11/09 09:06:31;;;;;;;26.62;18.87;;;;;;;13.74;84.42;99952.27;2968040;77;21054;-95
2022/11/09 09:10:39;;;;;;;29.37;20.65;;;;;;;13.73;85.42;99950.08;2940714;78;21507;-93
2022/11/09 09:14:37;;;;;;;27.98;19.90;;;;;;;13.78;85.63;99951.81;2942250;79;21015;-94
2022/11/09 09:18:38;;;;;;;30.40;20.50;;;;;;;13.77;85.02;99950.13;2816217;81;21395;-95
2022/11/09 09:22:40;;;;;;;25.02;16.67;;;;;;;13.81;84.87;99951.49;2824316;81;21011;-96
2022/11/09 09:26:43;;;;;;;28.12;19.35;;;;;;;13.79;84.62;99960.17;2917372;77;21015;-94
2022/11/09 09:30:45;;;;;;;23.83;18.60;;;;;;;13.76;85.12;99969.84;2922963;78;21002;-94
2022/11/09 09:34:46;;;;;;;28.77;17.87;;;;;;;13.81;84.74;99976.89;2918233;77;20971;-94
2022/11/09 09:38:53;;;;;;;27.27;20.00;;;;;;;13.85;84.67;99971.57;2897146;80;21027;-94
2022/11/09 09:42:54;;;;;;;;;;;;;;;13.90;84.76;99972.45;2871118;80;21171;-95
2022/11/09 09:47:04;;;;;;;30.72;20.00;;;;;;;13.95;83.64;99967.47;2924267;79;20179;-94
2022/11/09 09:51:14;;;;;;;26.90;18.42;;;;;;;14.03;84.30;99973.86;2920038;78;20999;-95
2022/11/09 09:55:34;;;;;;;22.32;17.10;;;;;;;14.31;85.42;99984.42;2902942;79;21044;-94
2022/11/09 09:59:52;;;;;;;27.95;19.55;;;;;;;14.47;84.52;99983.19;2923377;77;21038;-94
2022/11/09 10:03:53;;;;;;;27.15;18.77;;;;;;;14.59;83.03;99970.37;2911008;78;21086;-94
2022/11/09 10:08:12;;;;;;;20.20;14.65;;;;;;;14.67;82.54;99973.08;2920224;79;21101;-93
2022/11/09 10:12:48;;;;;;;23.90;19.60;;;;;;;14.86;83.16;99983.22;2955307;77;21519;-94
2022/11/09 10:21:59;;;;;;;30.08;19.55;;;;;;;15.51;82.46;99999.13;2940528;77;20984;-92
2022/11/09 10:26:18;;;;;;;30.60;19.17;;;;;;;15.76;81.19;99999.17;2811836;82;21183;-96
2022/11/09 10:30:21;;;;;;;29.50;20.68;;;;;;;15.81;80.70;100007.55;2847098;80;21034;-96
2022/11/09 10:34:34;;;;;;;28.38;18.40;;;;;;;15.93;80.76;100001.90;2817080;82;21019;-94
2022/11/09 10:38:43;;;;;;;28.80;20.15;;;;;;;15.96;79.06;100003.72;2845685;80;21024;-95
2022/11/09 10:43:00;;;;;;;26.10;18.98;;;;;;;15.93;78.72;100008.61;2833330;81;20999;-95
2022/11/09 10:47:15;;;;;;;32.20;21.70;;;;;;;15.87;78.43;100004.71;2854662;81;21076;-94
2022/11/09 10:51:34;;;;;;;31.20;21.57;;;;;;;15.85;79.97;100015.59;2803304;82;21031;-94
2022/11/09 10:55:36;;;;;;;29.95;20.65;;;;;;;15.71;78.76;100037.21;2820792;82;21067;-95
2022/11/09 10:59:50;;;;;;;33.60;21.17;;;;;;;15.75;80.33;100029.69;2806175;82;21028;-93
2022/11/09 11:03:54;;;;;;;27.82;19.65;;;;;;;15.61;77.89;100024.96;2928153;79;20995;-95
2022/11/09 11:07:56;;;;;;;29.92;21.57;;;;;;;15.60;79.19;100025.45;2932065;79;21019;-93
2022/11/09 11:12:14;;;;;;;28.23;20.40;;;;;;;15.64;79.58;100017.92;2923130;77;21463;-96
2022/11/09 11:16:30;;;;;;;30.17;19.55;;;;;;;15.68;80.59;100028.16;2904080;80;21691;-93
2022/11/09 11:20:37;;;;;;;23.40;17.80;;;;;;;15.75;81.42;100031.02;2840264;80;21032;-96
2022/11/09 11:24:58;;;;;;;26.17;18.32;;;;;;;15.81;80.12;100021.45;2892038;80;21046;-93
2022/11/09 11:29:10;;;;;;;30.17;21.93;;;;;;;15.92;80.00;100021.69;2882553;80;21066;-96
2022/11/09 11:33:21;;;;;;;25.82;19.57;;;;;;;16.02;79.27;100025.02;2754068;82;21047;-91
2022/11/09 11:37:37;;;;;;;28.50;19.05;;;;;;;16.09;78.64;100023.85;2790369;82;21052;-95
2022/11/09 11:41:49;;;;;;;23.30;17.25;;;;;;;16.15;77.55;100024.51;2780988;83;21126;-92
2022/11/09 11:46:19;;;;;;;29.55;19.80;;;;;;;16.17;76.74;100027.03;2791428;83;21023;-91
2022/11/09 11:50:47;;;;;;;30.45;22.20;;;;;;;15.92;77.16;100013.12;2820161;81;21501;-93
2022/11/09 11:55:19;;;;;;;26.10;19.92;;;;;;;15.76;78.25;100016.61;2837743;81;21844;-92
2022/11/09 11:59:32;;;;;;;29.75;19.98;;;;;;;15.76;78.99;100008.56;2893028;80;21019;-91
2022/11/09 12:03:58;;;;;;;29.48;19.90;;;;;;;15.71;79.52;100002.84;2817719;80;21068;-92
2022/11/09 12:08:20;;;;;;;28.07;17.77;;;;;;;15.75;80.31;99988.61;2878114;77;20987;-92
2022/11/09 12:13:06;;;;;;;29.05;19.10;;;;;;;15.78;81.23;99990.46;2909524;78;21034;-91
2022/11/09 12:17:18;;;;;;;22.90;17.67;;;;;;;15.82;78.37;99989.11;2812437;80;21107;-94
2022/11/09 12:21:40;;;;;;;24.80;16.65;;;;;;;15.82;78.70;100005.20;2839144;82;21123;-92
2022/11/09 12:26:31;;;;;;;21.27;16.35;;;;;;;15.74;79.46;99998.52;2809028;81;21075;-93
2022/11/09 12:30:57;;;;;;;30.32;19.37;;;;;;;15.48;78.71;99998.12;2809390;81;21028;-92
2022/11/09 12:35:21;;;;;;;31.87;21.95;;;;;;;15.35;79.29;99987.89;2835986;82;21522;-93
2022/11/09 12:39:40;;;;;;;30.00;21.77;;;;;;;15.14;79.85;99991.86;2799035;81;21036;-94
2022/11/09 12:43:52;;;;;;;35.33;22.77;;;;;;;15.05;80.85;99992.00;2832987;81;20994;-92
2022/11/09 12:47:57;;;;;;;31.97;22.75;;;;;;;14.94;81.17;99987.29;2846005;81;21032;-90
2022/11/09 12:51:59;;;;;;;32.42;22.98;;;;;;;14.76;80.89;99973.16;2881241;79;21020;-89
2022/11/09 12:56:12;;;;;;;30.23;21.07;;;;;;;14.54;81.19;99978.87;2947138;77;21022;-91
2022/11/09 13:00:39;;;;;;;34.83;26.07;;;;;;;14.49;81.37;99986.55;2909191;79;21047;-94
2022/11/09 13:04:46;;;;;;;30.57;23.90;;;;;;;14.48;82.50;99985.35;2939204;79;20945;-92
2022/11/09 13:09:16;;;;;;;39.30;25.20;;;;;;;14.46;82.23;99994.04;2942339;79;21168;-94
2022/11/09 13:13:21;;;;;;;41.37;26.37;;;;;;;14.45;82.51;99984.34;2939776;77;21055;-93
2022/11/09 13:17:29;;;;;;;42.73;24.18;;;;;;;14.38;83.03;99988.99;2921586;77;21577;-94
2022/11/09 13:21:36;;;;;;;34.30;24.30;;;;;;;14.19;82.69;99983.34;2866247;80;21008;-93
2022/11/09 13:25:49;;;;;;;28.87;20.65;;;;;;;14.07;84.41;99962.70;2932282;79;21435;-95
2022/11/09 13:29:52;;;;;;;37.98;24.60;;;;;;;14.06;84.32;99963.70;2926128;79;21475;-95
2022/11/09 13:33:59;;;;;;;34.55;24.02;;;;;;;14.07;84.41;99968.05;2951375;77;21024;-94
2022/11/09 13:38:01;;;;;;;33.63;23.75;;;;;;;14.08;83.45;99971.06;2859373;80;21028;-93
2022/11/09 13:42:20;;;;;;;32.75;24.72;;;;;;;14.09;82.87;99980.77;2964296;77;21003;-94
2022/11/09 13:46:36;;;;;;;35.70;23.38;;;;;;;14.10;82.67;99983.78;2852350;81;21010;-93
2022/11/09 13:50:37;;;;;;;33.18;24.75;;;;;;;13.98;83.75;99979.70;2870877;80;21568;-93
2022/11/09 13:54:43;;;;;;;35.15;24.23;;;;;;;13.97;84.50;99984.70;2866430;81;21073;-94
2022/11/09 13:58:49;;;;;;;38.60;26.10;;;;;;;13.89;84.88;99983.28;2875864;80;21058;-92
2022/11/09 14:03:05;;;;;;;36.77;27.45;;;;;;;13.81;86.00;99978.23;2831066;81;21543;-93
2022/11/09 14:07:26;;;;;;;37.95;24.37;;;;;;;13.72;85.22;99979.14;2847509;80;20960;-92
2022/11/09 14:12:07;;;;;;;34.83;24.30;;;;;;;13.79;85.42;99990.05;2840829;80;21083;-94
2022/11/09 14:16:25;;;;;;;37.17;25.32;;;;;;;13.72;83.96;99976.46;2844016;82;21111;-93
2022/11/09 14:20:49;;;;;;;36.05;26.80;;;;;;;13.67;84.37;99972.94;2849222;80;21711;-94
2022/11/09 14:24:51;;;;;;;47.40;33.20;;;;;;;13.66;84.31;99982.44;2897161;79;21687;-94
2022/11/09 14:28:52;;;;;;;46.35;29.75;;;;;;;13.56;84.78;99990.53;2876139;82;21105;-88
2022/11/09 14:32:55;;;;;;;41.92;24.82;;;;;;;13.66;84.76;99992.64;2896944;80;21616;-86
2022/11/09 14:36:57;;;;;;;38.35;26.75;;;;;;;13.57;85.06;99985.53;2868681;80;21537;-91
2022/11/09 14:40:59;;;;;;;37.00;24.25;;;;;;;13.67;84.69;99986.78;2852158;81;21011;-90
2022/11/09 14:45:00;;;;;;;42.55;27.32;;;;;;;13.65;83.53;99984.77;2897550;79;21559;-91
2022/11/09 14:49:03;;;;;;;42.75;29.90;;;;;;;13.69;84.60;99992.81;2898840;79;21019;-91
2022/11/09 14:53:05;;;;;;;38.33;27.87;;;;;;;13.59;84.83;99984.05;2924153;78;21021;-90
2022/11/09 14:57:11;;;;;;;34.65;24.05;;;;;;;13.66;84.80;99987.30;2916135;79;21587;-89
2022/11/09 15:01:22;;;;;;;;;;;;;;;13.63;85.06;99983.56;2914519;79;21011;-90
2022/11/09 15:05:37;;;;;;;50.28;30.12;;;;;;;13.62;85.14;99981.06;2888252;79;20099;-91
2022/11/09 15:09:47;;;;;;;48.42;30.02;;;;;;;13.56;84.78;99983.36;2905600;79;20991;-91
2022/11/09 15:13:48;;;;;;;41.13;27.40;;;;;;;13.56;84.53;99964.66;2909233;79;21020;-89
2022/11/09 15:17:49;;;;;;;55.90;34.73;;;;;;;13.60;84.65;99963.02;2923161;78;21515;-90
2022/11/09 15:21:51;;;;;;;46.83;31.62;;;;;;;13.56;84.47;99975.83;2907436;79;21000;-91
2022/11/09 15:25:55;;;;;;;43.68;29.67;;;;;;;13.45;84.51;99979.57;2914379;79;21048;-91
2022/11/09 15:29:56;;;;;;;47.03;30.50;;;;;;;13.37;84.78;99975.47;2911570;79;20976;-92
2022/11/09 15:33:57;;;;;;;37.63;24.80;;;;;;;13.32;84.95;99977.73;2909814;78;21625;-92
2022/11/09 15:38:00;;;;;;;43.13;27.77;;;;;;;13.35;84.74;99984.95;2906360;78;21019;-91
2022/11/09 15:42:02;;;;;;;31.90;24.15;;;;;;;13.34;84.68;99984.61;2857946;79;21102;-91
2022/11/09 15:46:03;;;;;;;34.13;25.85;;;;;;;13.30;83.82;99987.25;2932669;78;20969;-91
2022/11/09 15:50:10;;;;;;;39.55;25.43;;;;;;;13.20;83.59;99989.98;2932263;78;21457;-91
2022/11/09 15:54:12;;;;;;;41.35;27.02;;;;;;;13.08;83.90;100001.84;2886149;79;20963;-91
2022/11/09 15:58:15;;;;;;;42.20;28.05;;;;;;;13.02;84.23;100009.13;2934773;78;21033;-92
2022/11/09 16:02:19;;;;;;;44.20;32.13;;;;;;;12.82;85.48;100002.55;2931789;79;21030;-91
2022/11/09 16:06:22;;;;;;;41.53;30.20;;;;;;;12.76;85.89;100013.80;2944125;78;21019;-92
2022/11/09 16:10:26;;;;;;;39.45;28.98;;;;;;;12.65;87.52;100010.81;2924756;78;21098;-92
2022/11/09 16:14:31;;;;;;;40.78;27.75;;;;;;;12.64;87.82;100008.66;2957358;78;21011;-92
2022/11/09 16:18:32;;;;;;;44.03;30.63;;;;;;;12.65;87.28;100009.48;2850353;79;20975;-89
2022/11/09 16:22:34;;;;;;;37.53;27.52;;;;;;;12.66;87.91;100031.17;2896503;77;20987;-89
2022/11/09 16:26:36;;;;;;;39.42;27.95;;;;;;;12.71;88.56;100028.94;2825720;79;21031;-90
2022/11/09 16:30:37;;;;;;;39.03;26.15;;;;;;;12.69;89.10;100034.91;2917806;78;21007;-90
2022/11/09 16:34:39;;;;;;;44.73;29.25;;;;;;;12.67;89.37;100033.71;2883225;79;21523;-88
2022/11/09 16:38:50;;;;;;;44.98;29.10;;;;;;;12.64;89.28;100046.02;2951659;78;21322;-88
2022/11/09 16:42:52;;;;;;;49.95;33.10;;;;;;;12.60;89.77;100036.63;2923967;78;21725;-89
2022/11/09 16:46:55;;;;;;;47.70;30.95;;;;;;;12.52;89.87;100041.83;2927388;77;23079;-89
2022/11/09 16:50:56;;;;;;;46.40;31.68;;;;;;;12.52;89.80;100041.83;2961741;78;20984;-89
2022/11/09 16:54:58;;;;;;;42.40;33.02;;;;;;;12.51;89.84;100035.66;2911566;80;20968;-89
2022/11/09 16:59:00;;;;;;;47.20;32.33;;;;;;;12.53;89.60;100043.03;2859125;80;21563;-89
2022/11/09 17:03:02;;;;;;;54.45;33.48;;;;;;;12.53;90.02;100044.36;2910618;79;21558;-88
2022/11/09 17:07:04;;;;;;;40.08;30.40;;;;;;;12.53;89.82;100044.36;2926634;79;21084;-89
2022/11/09 17:11:11;;;;;;;57.40;37.73;;;;;;;12.48;90.02;100044.44;2914320;79;21646;-90
2022/11/09 17:15:13;;;;;;;48.02;33.10;;;;;;;12.40;90.87;100054.02;2835332;80;21550;-89
2022/11/09 17:19:14;;;;;;;46.00;31.33;;;;;;;12.39;91.00;100056.33;2931602;78;21012;-89
2022/11/09 17:23:18;;;;;;;39.58;28.02;;;;;;;12.39;91.05;100062.14;2914581;79;31414;-91
2022/11/09 17:27:19;;;;;;;49.65;33.25;;;;;;;12.39;91.08;100055.00;2936741;78;21014;-89
2022/11/09 17:31:25;;;;;;;37.00;28.07;;;;;;;12.36;91.37;100056.59;2932774;78;21012;-89
2022/11/09 17:35:27;;;;;;;41.08;29.60;;;;;;;12.35;91.21;100058.91;2878354;79;20995;-89
2022/11/09 17:39:28;;;;;;;44.42;30.45;;;;;;;12.33;91.31;100070.22;2904317;80;21035;-89
2022/11/09 17:43:33;;;;;;;48.90;35.45;;;;;;;12.33;91.21;100076.89;2928022;78;20989;-89
2022/11/09 17:47:34;;;;;;;50.92;32.63;;;;;;;12.26;91.70;100067.78;2896427;79;21378;-89
2022/11/09 17:51:35;;;;;;;54.50;39.78;;;;;;;12.30;91.39;100079.02;2846560;79;21060;-89
2022/11/09 17:55:37;;;;;;;66.00;41.10;;;;;;;12.27;91.40;100085.47;2907932;79;21010;-90
2022/11/09 17:59:38;;;;;;;58.20;41.77;;;;;;;12.21;91.10;100088.71;2907360;78;20986;-90
2022/11/09 18:03:40;;;;;;;61.70;43.17;;;;;;;12.12;91.33;100092.55;2883994;78;21044;-90
2022/11/09 18:07:41;;;;;;;74.80;48.58;;;;;;;12.06;91.63;100089.13;2906102;80;20979;-89
2022/11/09 18:11:43;;;;;;;82.37;52.33;;;;;;;12.04;91.76;100089.77;2910930;80;20995;-88
2022/11/09 18:15:44;;;;;;;82.27;55.10;;;;;;;11.99;91.89;100087.98;2850088;79;21020;-89
2022/11/09 18:19:46;;;;;;;76.72;50.40;;;;;;;11.97;91.77;100095.25;2921019;79;20960;-90
2022/11/09 18:23:48;;;;;;;63.68;47.20;;;;;;;11.95;92.03;100098.55;2902619;79;21588;-89
2022/11/09 18:27:51;;;;;;;65.90;45.38;;;;;;;11.85;92.68;100096.73;2932572;79;20999;-90
2022/11/09 18:31:53;;;;;;;103.90;75.10;;;;;;;11.79;93.41;100098.63;2947100;78;21003;-89
2022/11/09 18:35:59;;;;;;;97.75;64.27;;;;;;;11.76;93.62;100100.21;2935864;79;21043;-89
2022/11/09 18:40:03;;;;;;;91.55;60.60;;;;;;;11.81;93.25;100103.33;2917905;79;21680;-89
2022/11/09 18:44:05;;;;;;;89.20;62.08;;;;;;;11.84;92.95;100109.71;2912226;79;21051;-89
2022/11/09 18:48:06;;;;;;;82.85;55.63;;;;;;;11.72;92.67;100117.46;2935105;79;20989;-91
2022/11/09 18:52:11;;;;;;;67.58;47.80;;;;;;;11.62;93.10;100121.95;2913247;79;21106;-88
2022/11/09 18:56:20;;;;;;;54.42;38.17;;;;;;;11.56;93.38;100120.66;2917368;78;21042;-88
2022/11/09 19:00:21;;;;;;;61.45;39.67;;;;;;;11.52;93.84;100120.59;2934050;78;21046;-88
2022/11/09 19:04:22;;;;;;;61.25;39.38;;;;;;;11.43;95.15;100125.73;2950734;78;21553;-88
2022/11/09 19:12:44;;;;;;;43.65;30.72;;;;;;;11.40;97.15;100118.52;2946658;78;21047;-88